Time;durP1;ratioP1;P1;durP2;ratioP2;P2;SDS_P1;SDS_P2;PMS_P1;PMS_P2;Temp;Humidity;BMP_temperature;BMP_pressure;BME280_temperature;BME280_humidity;BME280_pressure;Samples;Min_cycle;Max_cycle;Signal;HPM_P1;HPM_P2
2023/08/03 00:00:46;;;;;;;;;;;26.60;53.00;;;;;;5035617;28;89565;-53
2023/08/03 00:03:12;;;;;;;;;;;26.60;53.10;;;;;;5034975;28;87286;-55
2023/08/03 00:05:37;;;;;;;;;;;26.60;53.10;;;;;;5032403;27;87648;-53
2023/08/03 00:08:03;;;;;;;;;;;26.60;53.10;;;;;;5035276;28;88449;-54
2023/08/03 00:10:29;;;;;;;;;;;26.60;53.10;;;;;;5032794;28;87136;-49
2023/08/03 00:12:54;;;;;;;;;;;26.50;53.00;;;;;;5032244;28;88698;-54
2023/08/03 00:15:20;;;;;;;;;;;26.50;53.10;;;;;;5037242;28;87180;-53
2023/08/03 00:17:45;;;;;;;;;;;26.50;53.10;;;;;;5035137;28;87008;-54
2023/08/03 00:20:11;;;;;;;;;;;26.50;53.10;;;;;;5033705;28;87947;-52
2023/08/03 00:22:37;;;;;;;;;;;26.50;53.10;;;;;;5031610;28;88206;-52
2023/08/03 00:25:03;;;;;;;;;;;26.40;53.10;;;;;;5031096;28;89893;-52
2023/08/03 00:27:29;;;;;;;;;;;26.50;53.10;;;;;;5034649;27;89471;-53
2023/08/03 00:29:54;;;;;;;;;;;26.40;53.10;;;;;;5032552;28;87165;-51
2023/08/03 00:32:20;;;;;;;;;;;26.40;53.10;;;;;;5035217;28;87105;-53
2023/08/03 00:34:46;;;;;;;;;;;26.40;53.10;;;;;;5031998;28;88994;-55
2023/08/03 00:37:11;;;;;;;;;;;26.30;53.10;;;;;;5037504;28;87018;-53
2023/08/03 00:39:37;;;;;;;;;;;26.40;53.20;;;;;;5034276;28;86789;-51
2023/08/03 00:42:03;;;;;;;;;;;26.40;53.10;;;;;;5033461;28;87264;-53
2023/08/03 00:44:29;;;;;;;;;;;26.30;53.20;;;;;;5032567;28;87367;-52
2023/08/03 00:46:54;;;;;;;;;;;26.30;53.20;;;;;;5031682;28;88706;-54
2023/08/03 00:49:20;;;;;;;;;;;26.30;53.20;;;;;;5033808;28;87087;-52
2023/08/03 00:51:45;;;;;;;;;;;26.30;53.20;;;;;;5031823;28;87646;-51
2023/08/03 00:54:11;;;;;;;;;;;26.30;53.20;;;;;;5031851;28;88040;-50
2023/08/03 00:56:37;;;;;;;;;;;26.30;53.20;;;;;;5037389;27;87544;-53
2023/08/03 00:59:03;;;;;;;;;;;26.30;53.20;;;;;;5030015;28;88039;-54
2023/08/03 01:01:28;;;;;;;;;;;26.30;53.20;;;;;;5034086;28;87229;-52
2023/08/03 01:03:54;;;;;;;;;;;26.30;53.20;;;;;;5032202;28;87429;-52
2023/08/03 01:06:20;;;;;;;;;;;26.30;53.30;;;;;;5031509;27;89388;-52
2023/08/03 01:08:45;;;;;;;;;;;26.20;53.20;;;;;;5034315;28;87430;-54
2023/08/03 01:11:11;;;;;;;;;;;26.30;53.30;;;;;;5031989;28;88116;-53
2023/08/03 01:13:37;;;;;;;;;;;26.20;53.20;;;;;;5034128;28;88098;-53
2023/08/03 01:16:03;;;;;;;;;;;26.20;53.30;;;;;;5035009;28;87313;-51
2023/08/03 01:18:28;;;;;;;;;;;26.20;53.20;;;;;;5035074;28;88386;-55
2023/08/03 01:20:55;;;;;;;;;;;26.20;53.30;;;;;;5031472;28;87281;-54
2023/08/03 01:23:20;;;;;;;;;;;26.20;53.30;;;;;;5031565;28;87043;-53
2023/08/03 01:25:46;;;;;;;;;;;26.20;53.30;;;;;;5033718;28;87203;-54
2023/08/03 01:28:11;;;;;;;;;;;26.20;53.30;;;;;;5032552;28;86395;-50
2023/08/03 01:30:37;;;;;;;;;;;26.10;53.20;;;;;;5033291;28;86963;-51
2023/08/03 01:33:02;;;;;;;;;;;26.10;53.30;;;;;;5033294;28;88012;-54
2023/08/03 01:35:28;;;;;;;;;;;26.00;53.20;;;;;;5031005;28;89633;-53
2023/08/03 01:37:53;;;;;;;;;;;26.10;53.30;;;;;;5031427;28;88313;-55
2023/08/03 01:40:20;;;;;;;;;;;26.00;53.20;;;;;;5036291;28;87985;-53
2023/08/03 01:42:45;;;;;;;;;;;26.00;53.30;;;;;;5046403;27;90334;-52
2023/08/03 01:45:11;;;;;;;;;;;26.00;53.20;;;;;;5032596;28;87190;-54
2023/08/03 01:47:37;;;;;;;;;;;26.00;53.20;;;;;;5034267;28;87454;-53
2023/08/03 01:50:02;;;;;;;;;;;26.00;53.30;;;;;;5032717;27;87941;-55
2023/08/03 01:52:28;;;;;;;;;;;26.00;53.30;;;;;;5031720;28;87588;-55
2023/08/03 01:54:53;;;;;;;;;;;26.00;53.30;;;;;;5032996;28;87126;-52
2023/08/03 01:57:19;;;;;;;;;;;26.00;53.30;;;;;;5033349;28;87421;-52
2023/08/03 01:59:45;;;;;;;;;;;26.00;53.30;;;;;;5032518;28;89281;-53
2023/08/03 02:02:12;;;;;;;;;;;26.00;53.30;;;;;;5034745;28;87138;-54
2023/08/03 02:04:37;;;;;;;;;;;25.90;53.20;;;;;;5032313;28;87909;-52
2023/08/03 02:07:15;;;;;;;;;;;26.00;53.40;;;;;;5030852;28;87069;-54
2023/08/03 02:09:40;;;;;;;;;;;25.90;53.30;;;;;;5031333;28;89801;-53
2023/08/03 02:12:06;;;;;;;;;;;25.90;53.30;;;;;;5031215;28;87982;-50
2023/08/03 02:14:31;;;;;;;;;;;25.90;53.30;;;;;;5030922;28;87249;-51
2023/08/03 02:16:57;;;;;;;;;;;25.90;53.30;;;;;;5035084;28;87443;-53
2023/08/03 02:19:22;;;;;;;;;;;25.90;53.30;;;;;;5032118;28;89201;-50
2023/08/03 02:21:48;;;;;;;;;;;25.90;53.30;;;;;;5030899;27;87197;-53
2023/08/03 02:24:13;;;;;;;;;;;25.80;53.20;;;;;;5035417;28;88000;-52
2023/08/03 02:26:39;;;;;;;;;;;25.80;53.20;;;;;;5031855;28;87477;-53
2023/08/03 02:29:04;;;;;;;;;;;25.80;53.30;;;;;;5031810;28;91598;-51
2023/08/03 02:31:30;;;;;;;;;;;25.80;53.30;;;;;;5032445;28;88050;-53
2023/08/03 02:33:55;;;;;;;;;;;25.80;53.30;;;;;;5031574;28;87149;-50
2023/08/03 02:36:21;;;;;;;;;;;25.80;53.30;;;;;;5029426;28;87468;-52
2023/08/03 02:38:46;;;;;;;;;;;25.80;53.30;;;;;;5030338;28;88163;-53
2023/08/03 02:41:12;;;;;;;;;;;25.80;53.30;;;;;;5034786;28;86318;-51
2023/08/03 02:43:37;;;;;;;;;;;25.70;53.20;;;;;;5030309;28;86955;-53
2023/08/03 02:46:03;;;;;;;;;;;25.70;53.20;;;;;;5033512;28;87164;-52
2023/08/03 02:48:28;;;;;;;;;;;25.70;53.30;;;;;;5030556;28;88057;-50
2023/08/03 02:50:54;;;;;;;;;;;25.70;53.30;;;;;;5034733;28;88106;-53
2023/08/03 02:53:19;;;;;;;;;;;25.70;53.30;;;;;;5029732;28;87602;-54
2023/08/03 02:55:45;;;;;;;;;;;25.70;53.30;;;;;;5032519;28;87129;-54
2023/08/03 02:58:10;;;;;;;;;;;25.70;53.40;;;;;;5030641;28;88196;-52
2023/08/03 03:00:35;;;;;;;;;;;25.70;53.40;;;;;;5030484;28;87106;-54
2023/08/03 03:03:01;;;;;;;;;;;25.70;53.30;;;;;;5030306;28;87425;-54
2023/08/03 03:05:26;;;;;;;;;;;25.60;53.30;;;;;;5034847;28;87447;-52
2023/08/03 03:07:52;;;;;;;;;;;25.60;53.30;;;;;;5027646;28;87022;-55
2023/08/03 03:10:17;;;;;;;;;;;25.60;53.30;;;;;;5032667;28;88371;-51
2023/08/03 03:12:43;;;;;;;;;;;25.60;53.30;;;;;;5030053;28;88349;-52
2023/08/03 03:15:09;;;;;;;;;;;25.60;53.30;;;;;;5032576;28;89783;-54
2023/08/03 03:17:34;;;;;;;;;;;25.60;53.30;;;;;;5030709;28;88240;-53
2023/08/03 03:20:00;;;;;;;;;;;25.60;53.40;;;;;;5032691;27;87156;-53
2023/08/03 03:22:25;;;;;;;;;;;25.60;53.40;;;;;;5033783;28;88292;-53
2023/08/03 03:24:51;;;;;;;;;;;25.60;53.40;;;;;;5031116;28;88146;-53
2023/08/03 03:27:16;;;;;;;;;;;25.60;53.40;;;;;;5035903;28;87088;-54
2023/08/03 03:29:42;;;;;;;;;;;25.60;53.40;;;;;;5033117;28;88623;-53
2023/08/03 03:32:07;;;;;;;;;;;25.50;53.40;;;;;;5030103;28;87362;-54
2023/08/03 03:34:32;;;;;;;;;;;25.50;53.40;;;;;;5039358;28;89063;-51
2023/08/03 03:36:58;;;;;;;;;;;25.50;53.30;;;;;;5026539;28;90427;-53
2023/08/03 03:39:23;;;;;;;;;;;25.50;53.40;;;;;;5030406;28;87355;-52
2023/08/03 03:41:49;;;;;;;;;;;25.50;53.40;;;;;;5030471;28;87744;-52
2023/08/03 03:44:14;;;;;;;;;;;25.50;53.40;;;;;;5032396;28;89374;-52
2023/08/03 03:46:40;;;;;;;;;;;25.40;53.30;;;;;;5033041;28;87065;-53
2023/08/03 03:49:05;;;;;;;;;;;25.40;53.30;;;;;;5037476;28;87925;-51
2023/08/03 03:51:31;;;;;;;;;;;25.40;53.40;;;;;;5033701;28;88062;-52
2023/08/03 03:53:56;;;;;;;;;;;25.40;53.40;;;;;;5031439;28;90501;-55
2023/08/03 03:56:22;;;;;;;;;;;25.40;53.40;;;;;;5035204;28;88189;-55
2023/08/03 03:58:47;;;;;;;;;;;25.40;53.40;;;;;;5031168;28;87749;-53
2023/08/03 04:01:13;;;;;;;;;;;25.40;53.40;;;;;;5033195;28;88103;-54
2023/08/03 04:03:38;;;;;;;;;;;25.40;53.50;;;;;;5032025;28;87487;-51
2023/08/03 04:06:04;;;;;;;;;;;25.40;53.50;;;;;;5033639;28;87602;-55
2023/08/03 04:08:29;;;;;;;;;;;25.40;53.50;;;;;;5028975;28;87334;-53
2023/08/03 04:10:55;;;;;;;;;;;25.30;53.50;;;;;;5033418;28;88255;-50
2023/08/03 04:13:20;;;;;;;;;;;25.30;53.40;;;;;;5035572;28;87381;-54
2023/08/03 04:15:46;;;;;;;;;;;25.30;53.40;;;;;;5029804;28;88534;-55
2023/08/03 04:18:11;;;;;;;;;;;25.30;53.40;;;;;;5034755;28;86389;-52
2023/08/03 04:20:37;;;;;;;;;;;25.30;53.40;;;;;;5027392;28;86931;-54
2023/08/03 04:23:03;;;;;;;;;;;25.30;53.50;;;;;;5033431;28;89166;-52
2023/08/03 04:25:28;;;;;;;;;;;25.30;53.50;;;;;;5031136;28;89787;-54
2023/08/03 04:27:54;;;;;;;;;;;25.30;53.50;;;;;;5032761;28;91400;-54
2023/08/03 04:30:19;;;;;;;;;;;25.20;53.50;;;;;;5032240;28;88304;-53
2023/08/03 04:32:45;;;;;;;;;;;25.20;53.50;;;;;;5034045;28;87027;-49
2023/08/03 04:35:10;;;;;;;;;;;25.20;53.50;;;;;;5031354;28;87399;-54
2023/08/03 04:37:36;;;;;;;;;;;25.20;53.50;;;;;;5030508;28;87201;-49
2023/08/03 04:40:02;;;;;;;;;;;25.20;53.50;;;;;;5028177;28;88026;-49
2023/08/03 04:42:27;;;;;;;;;;;25.20;53.50;;;;;;5032137;28;88928;-53
2023/08/03 04:44:53;;;;;;;;;;;25.20;53.50;;;;;;5033239;28;87211;-51
2023/08/03 04:47:18;;;;;;;;;;;25.20;53.50;;;;;;5027906;28;88953;-50
2023/08/03 04:49:43;;;;;;;;;;;25.20;53.60;;;;;;5029995;28;88923;-50
2023/08/03 04:52:09;;;;;;;;;;;25.20;53.60;;;;;;5034745;28;87195;-51
2023/08/03 04:54:34;;;;;;;;;;;25.20;53.60;;;;;;5033053;28;87502;-52
2023/08/03 04:57:00;;;;;;;;;;;25.10;53.60;;;;;;5028374;28;87583;-52
2023/08/03 04:59:26;;;;;;;;;;;25.10;53.60;;;;;;5032425;28;87452;-52
2023/08/03 05:01:51;;;;;;;;;;;25.20;53.70;;;;;;5034124;28;88009;-52
2023/08/03 05:04:17;;;;;;;;;;;25.10;53.60;;;;;;5027200;28;87553;-53
2023/08/03 05:06:42;;;;;;;;;;;25.10;53.60;;;;;;5032223;28;87532;-54
2023/08/03 05:09:08;;;;;;;;;;;25.20;53.60;;;;;;5031220;28;87047;-56
2023/08/03 05:11:33;;;;;;;;;;;25.10;53.60;;;;;;5034275;28;87184;-52
2023/08/03 05:13:59;;;;;;;;;;;25.10;53.70;;;;;;5028888;28;88470;-53
2023/08/03 05:16:24;;;;;;;;;;;25.10;53.70;;;;;;5030130;28;87258;-53
2023/08/03 05:18:50;;;;;;;;;;;25.10;53.60;;;;;;5031423;28;88900;-52
2023/08/03 05:21:16;;;;;;;;;;;25.10;53.70;;;;;;5030400;28;89368;-52
2023/08/03 05:23:42;;;;;;;;;;;25.10;53.70;;;;;;5032797;28;87223;-52
2023/08/03 05:26:07;;;;;;;;;;;25.10;53.80;;;;;;5028415;28;87655;-52
2023/08/03 05:28:33;;;;;;;;;;;25.10;53.70;;;;;;5030700;28;88024;-55
2023/08/03 05:30:58;;;;;;;;;;;25.10;53.80;;;;;;5033410;28;86310;-53
2023/08/03 05:33:24;;;;;;;;;;;25.10;53.80;;;;;;5028175;28;87149;-53
2023/08/03 05:35:49;;;;;;;;;;;25.10;53.80;;;;;;5029163;28;89179;-54
2023/08/03 05:38:15;;;;;;;;;;;25.10;53.80;;;;;;5030155;28;88075;-51
2023/08/03 05:40:41;;;;;;;;;;;25.10;53.90;;;;;;5032222;28;87791;-54
2023/08/03 05:43:13;;;;;;;;;;;25.10;53.80;;;;;;5028321;28;87179;-54
2023/08/03 05:45:43;;;;;;;;;;;25.10;53.90;;;;;;5026403;28;87447;-53
2023/08/03 05:48:13;;;;;;;;;;;25.10;53.90;;;;;;5032488;28;89407;-52
2023/08/03 05:50:43;;;;;;;;;;;25.10;53.90;;;;;;5031697;28;87197;-54
2023/08/03 05:53:09;;;;;;;;;;;25.10;53.80;;;;;;5029246;28;88742;-50
2023/08/03 05:55:35;;;;;;;;;;;25.10;53.90;;;;;;5027191;28;86417;-54
2023/08/03 05:58:01;;;;;;;;;;;25.10;53.90;;;;;;5035040;28;87108;-55
2023/08/03 06:00:28;;;;;;;;;;;25.10;53.90;;;;;;5033934;28;88363;-51
2023/08/03 06:02:56;;;;;;;;;;;25.10;54.00;;;;;;5031504;28;89964;-54
2023/08/03 06:05:32;;;;;;;;;;;25.10;54.00;;;;;;5027676;28;87925;-55
2023/08/03 06:07:57;;;;;;;;;;;25.10;54.10;;;;;;5029399;28;88039;-53
2023/08/03 06:10:23;;;;;;;;;;;25.10;54.10;;;;;;5031535;28;87115;-51
2023/08/03 06:12:48;;;;;;;;;;;25.10;54.20;;;;;;5030233;28;88778;-54
2023/08/03 06:15:16;;;;;;;;;;;25.10;54.20;;;;;;5029055;28;86900;-55
2023/08/03 06:17:41;;;;;;;;;;;25.10;54.20;;;;;;5033318;28;87304;-53
2023/08/03 06:20:11;;;;;;;;;;;25.10;54.20;;;;;;5034827;28;87523;-54
2023/08/03 06:22:37;;;;;;;;;;;25.10;54.30;;;;;;5031980;28;87637;-55
2023/08/03 06:25:05;;;;;;;;;;;25.10;54.20;;;;;;5028792;28;87554;-52
2023/08/03 06:27:30;;;;;;;;;;;25.10;54.30;;;;;;5032887;28;89127;-51
2023/08/03 06:29:56;;;;;;;;;;;25.10;54.30;;;;;;5029002;28;87125;-53
2023/08/03 06:32:23;;;;;;;;;;;25.10;54.30;;;;;;5028188;28;88507;-53
2023/08/03 06:34:48;;;;;;;;;;;25.10;54.40;;;;;;5032103;28;89327;-54
2023/08/03 06:37:14;;;;;;;;;;;25.10;54.40;;;;;;5031826;28;87193;-55
2023/08/03 06:39:39;;;;;;;;;;;25.10;54.60;;;;;;5031097;28;88955;-52
2023/08/03 06:42:05;;;;;;;;;;;25.20;54.60;;;;;;5034457;28;88868;-52
2023/08/03 06:44:31;;;;;;;;;;;25.10;54.50;;;;;;5030176;28;87557;-54
2023/08/03 06:46:56;;;;;;;;;;;25.10;54.60;;;;;;5033621;28;88178;-55
2023/08/03 06:49:22;;;;;;;;;;;25.10;54.60;;;;;;5028147;28;87781;-52
2023/08/03 06:51:48;;;;;;;;;;;25.20;54.80;;;;;;5025235;28;88150;-54
2023/08/03 06:54:13;;;;;;;;;;;25.10;54.80;;;;;;5028520;28;87845;-55
2023/08/03 06:56:39;;;;;;;;;;;25.20;54.70;;;;;;5033246;28;87152;-52
2023/08/03 06:59:04;;;;;;;;;;;25.10;54.70;;;;;;5026913;28;88323;-52
2023/08/03 07:01:30;;;;;;;;;;;25.20;54.70;;;;;;5024365;28;88075;-55
2023/08/03 07:03:55;;;;;;;;;;;25.20;54.80;;;;;;5035731;28;87057;-52
2023/08/03 07:06:21;;;;;;;;;;;25.10;54.70;;;;;;5030323;28;88055;-53
2023/08/03 07:08:46;;;;;;;;;;;25.20;54.80;;;;;;5030972;28;86458;-49
2023/08/03 07:11:12;;;;;;;;;;;25.20;54.70;;;;;;5026291;28;88964;-53
2023/08/03 07:13:38;;;;;;;;;;;25.20;54.70;;;;;;5030337;28;89582;-52
2023/08/03 07:16:07;;;;;;;;;;;25.20;54.80;;;;;;5029524;28;88555;-53
2023/08/03 07:18:33;;;;;;;;;;;25.20;54.70;;;;;;5027894;28;88224;-54
2023/08/03 07:21:02;;;;;;;;;;;25.10;54.80;;;;;;5025923;28;88354;-49
2023/08/03 07:23:28;;;;;;;;;;;25.10;54.80;;;;;;5033814;28;87127;-49
2023/08/03 07:25:54;;;;;;;;;;;25.10;54.90;;;;;;5029990;28;88911;-51
2023/08/03 07:28:20;;;;;;;;;;;25.20;54.80;;;;;;5028314;28;88030;-51
2023/08/03 07:30:45;;;;;;;;;;;25.20;54.90;;;;;;5029473;28;87492;-53
2023/08/03 07:33:11;;;;;;;;;;;25.20;54.90;;;;;;5032055;28;87306;-52
2023/08/03 07:35:37;;;;;;;;;;;25.20;55.00;;;;;;5028508;28;87237;-51
2023/08/03 07:38:02;;;;;;;;;;;25.10;54.80;;;;;;5028471;28;87407;-52
2023/08/03 07:40:28;;;;;;;;;;;25.20;54.80;;;;;;5028667;28;89031;-50
2023/08/03 07:42:53;;;;;;;;;;;25.20;54.80;;;;;;5032885;28;87134;-50
2023/08/03 07:45:19;;;;;;;;;;;25.20;54.80;;;;;;5030206;28;87392;-50
2023/08/03 07:47:44;;;;;;;;;;;25.20;54.80;;;;;;5024418;28;87083;-48
2023/08/03 07:50:10;;;;;;;;;;;25.20;54.70;;;;;;5029768;28;87683;-50
2023/08/03 07:52:36;;;;;;;;;;;25.20;54.70;;;;;;5031493;28;88293;-50
2023/08/03 07:55:02;;;;;;;;;;;25.20;54.60;;;;;;5023727;28;87381;-52
2023/08/03 07:57:27;;;;;;;;;;;25.20;54.70;;;;;;5025977;28;87390;-50
2023/08/03 07:59:53;;;;;;;;;;;25.20;54.70;;;;;;5031542;28;89614;-53
2023/08/03 08:02:18;;;;;;;;;;;25.20;54.70;;;;;;5030590;28;88865;-53
2023/08/03 08:04:47;;;;;;;;;;;25.20;54.60;;;;;;5028444;27;89253;-53
2023/08/03 08:07:13;;;;;;;;;;;25.20;54.60;;;;;;5033167;28;88116;-54
2023/08/03 08:09:38;;;;;;;;;;;25.20;54.50;;;;;;5031950;28;87570;-52
2023/08/03 08:12:07;;;;;;;;;;;25.20;54.80;;;;;;5034931;28;87995;-54
2023/08/03 08:14:32;;;;;;;;;;;25.20;54.50;;;;;;5030414;28;88215;-52
2023/08/03 08:16:58;;;;;;;;;;;25.30;54.60;;;;;;5029902;28;88900;-52
2023/08/03 08:19:23;;;;;;;;;;;25.20;54.50;;;;;;5032307;28;87322;-53
2023/08/03 08:21:49;;;;;;;;;;;25.30;54.50;;;;;;5036531;28;87222;-52
2023/08/03 08:24:14;;;;;;;;;;;25.30;54.60;;;;;;5030440;28;87731;-54
2023/08/03 08:26:40;;;;;;;;;;;25.30;54.50;;;;;;5032443;28;89295;-53
2023/08/03 08:29:06;;;;;;;;;;;25.30;54.50;;;;;;5037316;28;88132;-53
2023/08/03 08:31:31;;;;;;;;;;;25.30;54.50;;;;;;5031775;28;89616;-53
2023/08/03 08:33:57;;;;;;;;;;;25.30;54.60;;;;;;5035808;28;87138;-51
2023/08/03 08:36:22;;;;;;;;;;;25.30;54.50;;;;;;5033034;28;87835;-53
2023/08/03 08:38:48;;;;;;;;;;;25.30;54.50;;;;;;5029333;28;87960;-53
2023/08/03 08:41:13;;;;;;;;;;;25.30;54.60;;;;;;5034919;28;88968;-52
2023/08/03 08:43:40;;;;;;;;;;;25.30;54.60;;;;;;5031661;28;88251;-52
2023/08/03 08:46:06;;;;;;;;;;;25.30;54.50;;;;;;5032230;28;88821;-52
2023/08/03 08:48:33;;;;;;;;;;;25.30;54.60;;;;;;5033937;28;87146;-52
2023/08/03 08:51:00;;;;;;;;;;;25.30;54.50;;;;;;5031283;28;87705;-50
2023/08/03 08:53:25;;;;;;;;;;;25.40;54.60;;;;;;5029992;28;88080;-49
2023/08/03 08:55:51;;;;;;;;;;;25.40;54.60;;;;;;5031532;28;88210;-51
2023/08/03 08:58:16;;;;;;;;;;;25.40;54.60;;;;;;5034083;28;88798;-52
2023/08/03 09:00:43;;;;;;;;;;;25.40;54.60;;;;;;5030768;28;87128;-55
2023/08/03 09:03:09;;;;;;;;;;;25.40;54.60;;;;;;5032031;28;89366;-51
2023/08/03 09:05:36;;;;;;;;;;;25.40;55.20;;;;;;5033663;28;88297;-50
2023/08/03 09:08:28;;;;;;;;;;;25.40;54.60;;;;;;5030931;28;87315;-50
2023/08/03 09:10:54;;;;;;;;;;;25.40;54.50;;;;;;5031047;27;88907;-50
2023/08/03 09:13:31;;;;;;;;;;;25.40;54.50;;;;;;5032864;28;87189;-51
2023/08/03 09:15:57;;;;;;;;;;;25.40;54.50;;;;;;5032404;28;88780;-53
2023/08/03 09:18:25;;;;;;;;;;;25.50;54.60;;;;;;5032260;27;88941;-52
2023/08/03 09:20:50;;;;;;;;;;;25.50;54.50;;;;;;5027020;28;87756;-55
2023/08/03 09:23:30;;;;;;;;;;;25.40;54.50;;;;;;5029528;28;89257;-53
2023/08/03 09:25:55;;;;;;;;;;;25.50;55.20;;;;;;5032963;28;87817;-53
2023/08/03 09:28:32;;;;;;;;;;;25.50;54.50;;;;;;5027129;28;87816;-51
2023/08/03 09:30:58;;;;;;;;;;;25.50;54.50;;;;;;5027822;28;87518;-51
2023/08/03 09:33:23;;;;;;;;;;;25.50;54.50;;;;;;5035695;28;88675;-51
2023/08/03 09:36:00;;;;;;;;;;;25.50;54.50;;;;;;5032945;28;87336;-55
2023/08/03 09:38:25;;;;;;;;;;;25.50;54.50;;;;;;5033075;28;88797;-53
2023/08/03 09:40:51;;;;;;;;;;;25.60;54.60;;;;;;5029598;28;87079;-53
2023/08/03 09:43:17;;;;;;;;;;;25.60;54.50;;;;;;5032256;27;88072;-51
2023/08/03 09:45:46;;;;;;;;;;;25.60;54.50;;;;;;5029724;28;88088;-53
2023/08/03 09:48:11;;;;;;;;;;;25.60;54.50;;;;;;5029489;28;87375;-53
2023/08/03 09:50:38;;;;;;;;;;;25.60;54.50;;;;;;5027611;28;87434;-51
2023/08/03 09:53:06;;;;;;;;;;;25.60;54.50;;;;;;5031975;28;87769;-54
2023/08/03 09:55:33;;;;;;;;;;;25.60;54.40;;;;;;5031197;28;87156;-52
2023/08/03 09:58:00;;;;;;;;;;;25.70;54.50;;;;;;5028686;28;87963;-51
2023/08/03 10:00:26;;;;;;;;;;;25.70;54.50;;;;;;5027700;28;86381;-52
2023/08/03 10:02:55;;;;;;;;;;;25.70;54.50;;;;;;5033995;28;88129;-52
2023/08/03 10:05:22;;;;;;;;;;;25.70;54.40;;;;;;5030511;28;87480;-51
2023/08/03 10:07:50;;;;;;;;;;;25.70;54.40;;;;;;5031534;28;88337;-50
2023/08/03 10:10:20;;;;;;;;;;;25.80;54.50;;;;;;5030271;28;88347;-54
2023/08/03 10:12:49;;;;;;;;;;;25.80;54.50;;;;;;5032520;28;88401;-53
2023/08/03 10:15:16;;;;;;;;;;;25.80;54.50;;;;;;5032248;28;87224;-52
2023/08/03 10:17:42;;;;;;;;;;;25.80;54.50;;;;;;5033857;28;87764;-52
2023/08/03 10:20:09;;;;;;;;;;;25.90;54.50;;;;;;5030444;28;87174;-53
2023/08/03 10:22:35;;;;;;;;;;;25.90;54.50;;;;;;5031803;27;88739;-51
2023/08/03 10:25:18;;;;;;;;;;;25.90;54.50;;;;;;5029245;28;87187;-52
2023/08/03 10:28:03;;;;;;;;;;;25.90;54.50;;;;;;5026142;28;87145;-49
2023/08/03 10:30:47;;;;;;;;;;;25.90;54.40;;;;;;5030102;27;87413;-52
2023/08/03 10:33:12;;;;;;;;;;;26.00;54.50;;;;;;5030205;28;89115;-51
2023/08/03 10:35:38;;;;;;;;;;;26.00;54.50;;;;;;5025985;28;87264;-53
2023/08/03 10:38:17;;;;;;;;;;;26.00;54.40;;;;;;5032776;28;87606;-52
2023/08/03 10:40:42;;;;;;;;;;;26.00;54.40;;;;;;5032329;28;87983;-54
2023/08/03 10:43:08;;;;;;;;;;;26.00;54.40;;;;;;5033750;28;87225;-50
2023/08/03 10:45:35;;;;;;;;;;;26.00;54.60;;;;;;5026158;28;87958;-53
2023/08/03 10:48:21;;;;;;;;;;;26.10;54.50;;;;;;5030014;28;87161;-53
2023/08/03 10:50:56;;;;;;;;;;;26.10;54.80;;;;;;5027656;27;87740;-53
2023/08/03 10:53:22;;;;;;;;;;;26.10;54.80;;;;;;5025354;28;88272;-52
2023/08/03 10:55:48;;;;;;;;;;;26.10;54.70;;;;;;5027241;28;87380;-53
2023/08/03 10:58:13;;;;;;;;;;;26.10;54.70;;;;;;5033006;28;88610;-54
2023/08/03 11:00:42;;;;;;;;;;;26.10;54.60;;;;;;5032077;28;87476;-51
2023/08/03 11:03:07;;;;;;;;;;;26.20;54.50;;;;;;5031376;28;87787;-51
2023/08/03 11:05:33;;;;;;;;;;;26.20;54.40;;;;;;5027560;28;89628;-54
2023/08/03 11:07:58;;;;;;;;;;;26.30;54.50;;;;;;5031418;28;87043;-53
2023/08/03 11:10:25;;;;;;;;;;;26.30;54.50;;;;;;5028720;28;87747;-55
2023/08/03 11:12:52;;;;;;;;;;;26.30;54.40;;;;;;5026825;28;87941;-52
2023/08/03 11:15:18;;;;;;;;;;;26.30;54.30;;;;;;5027826;28;86579;-54
2023/08/03 11:17:46;;;;;;;;;;;26.30;54.40;;;;;;5032222;28;88036;-52
2023/08/03 11:20:14;;;;;;;;;;;26.40;54.40;;;;;;5027183;28;88350;-54
2023/08/03 11:22:40;;;;;;;;;;;26.40;54.40;;;;;;5029734;28;90034;-51
2023/08/03 11:25:06;;;;;;;;;;;26.50;54.40;;;;;;5030532;28;87330;-51
2023/08/03 11:27:32;;;;;;;;;;;26.40;54.30;;;;;;5029831;28;87368;-51
2023/08/03 11:29:57;;;;;;;;;;;26.40;54.30;;;;;;5029954;28;88722;-53
2023/08/03 11:32:26;;;;;;;;;;;26.40;54.30;;;;;;5026159;28;87073;-51
2023/08/03 11:35:02;;;;;;;;;;;26.50;54.30;;;;;;5029106;28;87541;-51
2023/08/03 11:37:29;;;;;;;;;;;26.50;54.30;;;;;;5032495;28;89058;-56
2023/08/03 11:39:54;;;;;;;;;;;26.50;54.30;;;;;;5025946;28;89059;-57
2023/08/03 11:42:20;;;;;;;;;;;26.60;54.30;;;;;;5033156;28;87391;-55
2023/08/03 11:44:46;;;;;;;;;;;26.60;54.30;;;;;;5035692;28;87362;-57
2023/08/03 11:47:11;;;;;;;;;;;26.60;54.30;;;;;;5035486;28;88207;-57
2023/08/03 11:49:37;;;;;;;;;;;26.60;54.30;;;;;;5028209;28;88361;-52
2023/08/03 11:52:02;;;;;;;;;;;26.60;54.40;;;;;;5030702;28;87562;-53
2023/08/03 11:54:29;;;;;;;;;;;26.70;54.40;;;;;;5035268;28;87261;-51
2023/08/03 11:58:07;;;;;;;;;;;26.70;54.20;;;;;;5030150;28;87203;-54
2023/08/03 11:59:44;;;;;;;;;;;26.70;54.20;;;;;;5031729;28;88097;-52
2023/08/03 12:02:10;;;;;;;;;;;26.80;54.20;;;;;;5030262;28;87489;-52
2023/08/03 12:04:35;;;;;;;;;;;26.80;54.20;;;;;;5036955;28;87837;-51
2023/08/03 12:07:02;;;;;;;;;;;26.80;54.20;;;;;;5037319;28;88212;-51
2023/08/03 12:09:28;;;;;;;;;;;26.80;54.20;;;;;;5031718;28;87824;-54
2023/08/03 12:12:01;;;;;;;;;;;26.90;54.20;;;;;;5031719;28;88087;-54
2023/08/03 12:14:26;;;;;;;;;;;26.90;54.10;;;;;;5035894;28;87168;-52
2023/08/03 12:16:52;;;;;;;;;;;26.90;54.20;;;;;;5030161;28;87460;-54
2023/08/03 12:19:18;;;;;;;;;;;26.90;54.10;;;;;;5029346;28;89882;-54
2023/08/03 12:21:44;;;;;;;;;;;27.00;54.20;;;;;;5032311;28;87353;-52
2023/08/03 12:24:09;;;;;;;;;;;27.00;54.20;;;;;;5034264;28;88583;-54
2023/08/03 12:26:35;;;;;;;;;;;27.00;54.20;;;;;;5029938;28;88042;-52
2023/08/03 12:29:01;;;;;;;;;;;27.00;54.10;;;;;;5036731;28;88194;-53
2023/08/03 12:31:28;;;;;;;;;;;27.00;54.10;;;;;;5031782;28;87665;-54
2023/08/03 12:33:53;;;;;;;;;;;27.10;54.00;;;;;;5033954;28;87463;-54
2023/08/03 12:36:19;;;;;;;;;;;27.10;54.10;;;;;;5025807;28;88128;-55
2023/08/03 12:38:44;;;;;;;;;;;27.10;54.10;;;;;;5027495;28;88822;-54
2023/08/03 12:41:10;;;;;;;;;;;27.10;54.00;;;;;;5031112;28;87331;-52
2023/08/03 12:43:35;;;;;;;;;;;27.10;54.00;;;;;;5036601;28;87644;-54
2023/08/03 12:46:01;;;;;;;;;;;27.20;54.00;;;;;;5028946;28;87970;-54
2023/08/03 12:48:27;;;;;;;;;;;27.20;54.00;;;;;;5031199;28;87504;-54
2023/08/03 12:50:52;;;;;;;;;;;27.20;54.00;;;;;;5036393;28;88860;-54
2023/08/03 12:53:18;;;;;;;;;;;27.20;54.00;;;;;;5030659;28;86644;-54
2023/08/03 12:55:43;;;;;;;;;;;27.30;54.60;;;;;;5031208;28;87680;-55
2023/08/03 12:58:10;;;;;;;;;;;27.30;53.90;;;;;;5029717;28;87183;-52
2023/08/03 13:00:35;;;;;;;;;;;27.40;54.00;;;;;;5034894;28;88042;-51
2023/08/03 13:03:01;;;;;;;;;;;27.40;54.00;;;;;;5033056;28;89709;-55
2023/08/03 13:05:26;;;;;;;;;;;27.40;54.10;;;;;;5027283;28;87514;-55
2023/08/03 13:07:52;;;;;;;;;;;27.40;54.00;;;;;;5030126;28;87264;-54
2023/08/03 13:10:19;;;;;;;;;;;27.40;54.00;;;;;;5031201;28;87465;-52
2023/08/03 13:12:45;;;;;;;;;;;27.50;54.10;;;;;;5033751;28;88063;-55
2023/08/03 13:15:12;;;;;;;;;;;27.50;54.10;;;;;;5032873;27;88864;-51
2023/08/03 13:17:38;;;;;;;;;;;27.50;54.10;;;;;;5031241;28;88780;-54
2023/08/03 13:20:04;;;;;;;;;;;27.50;54.10;;;;;;5035182;28;87161;-53
2023/08/03 13:22:30;;;;;;;;;;;27.50;54.00;;;;;;5029398;27;88642;-53
2023/08/03 13:24:55;;;;;;;;;;;27.50;54.00;;;;;;5030931;28;89455;-53
2023/08/03 13:27:25;;;;;;;;;;;27.60;54.10;;;;;;5030120;28;87091;-53
2023/08/03 13:29:51;;;;;;;;;;;27.60;54.10;;;;;;5034964;28;87522;-54
2023/08/03 13:32:17;;;;;;;;;;;27.60;54.10;;;;;;5033342;28;89295;-53
2023/08/03 13:34:42;;;;;;;;;;;27.70;54.20;;;;;;5025384;28;88920;-54
2023/08/03 13:37:08;;;;;;;;;;;27.70;54.20;;;;;;5029688;28;90958;-50
2023/08/03 13:39:33;;;;;;;;;;;27.70;54.10;;;;;;5033235;28;87466;-55
2023/08/03 13:41:59;;;;;;;;;;;27.80;54.10;;;;;;5026970;28;87444;-52
2023/08/03 13:44:25;;;;;;;;;;;27.80;54.10;;;;;;5027295;28;89222;-52
2023/08/03 13:46:50;;;;;;;;;;;27.80;54.00;;;;;;5033300;28;87357;-51
2023/08/03 13:49:18;;;;;;;;;;;27.80;54.00;;;;;;5033588;28;87966;-56
2023/08/03 13:51:43;;;;;;;;;;;27.90;54.00;;;;;;5024897;28;89930;-52
2023/08/03 13:54:09;;;;;;;;;;;27.90;54.00;;;;;;5030689;28;87788;-54
2023/08/03 13:56:34;;;;;;;;;;;27.90;53.90;;;;;;5028006;28;87936;-55
2023/08/03 13:59:00;;;;;;;;;;;28.00;53.80;;;;;;5036498;28;87616;-52
2023/08/03 14:01:25;;;;;;;;;;;28.00;53.70;;;;;;5028687;28;87369;-53
2023/08/03 14:03:54;;;;;;;;;;;28.00;53.70;;;;;;5027797;27;89518;-50
2023/08/03 14:06:20;;;;;;;;;;;28.00;53.70;;;;;;5030393;28;86449;-53
2023/08/03 14:08:46;;;;;;;;;;;28.00;53.60;;;;;;5033879;27;86922;-55
2023/08/03 14:11:11;;;;;;;;;;;28.10;53.60;;;;;;5030023;28;89305;-54